.
WxDataArchive / Data Records for 2011-01-25
2011-01-24 January 2011 2011-01-26

Data Records for Tuesday, 25 January 2011

Time	Temp	Chill	HIndex	Humid	Dewpt	 Wind 	HiWind	WindDir	Rain 	Barom 
-----	----	-----	------	-----	-----	------	------	-------	-----	----- 
00:00	29.5	29.5	29.5	85	25.6	2	4	248	0.00	30.096 
00:05	29.3	29.3	29.3	84	25.1	3	6	248	0.00	30.096 
00:10	29.0	29.0	29.0	84	24.8	3	6	248	0.00	30.096 
00:15	28.5	28.5	28.5	84	24.3	3	6	248	0.00	30.092 
00:20	28.4	28.4	28.4	84	24.2	3	6	248	0.00	30.092 
00:25	28.2	28.2	28.2	84	24.0	3	9	248	0.00	30.092 
00:30	28.1	28.1	28.1	84	23.9	2	5	248	0.00	30.094 
00:35	28.1	28.1	28.1	84	23.9	2	6	270	0.00	30.094 
00:40	27.8	27.8	27.8	84	23.6	2	4	248	0.00	30.094 
00:45	27.6	27.6	27.6	84	23.4	2	4	248	0.00	30.087 
00:50	27.3	27.3	27.3	84	23.1	1	4	248	0.00	30.087 
00:55	27.2	27.2	27.2	84	23.0	1	4	248	0.00	30.087 
01:00	27.2	27.2	27.2	85	23.3	1	4	248	0.00	30.098 
01:05	27.3	27.3	27.3	85	23.4	2	5	248	0.00	30.098 
01:10	27.3	27.3	27.3	85	23.4	2	6	225	0.00	30.098 
01:15	27.2	27.2	27.2	84	23.0	3	7	248	0.00	30.096 
01:20	27.0	27.0	27.0	84	22.8	2	7	248	0.00	30.096 
01:25	26.9	26.9	26.9	84	22.7	3	6	225	0.00	30.096 
01:30	26.7	26.7	26.7	84	22.5	3	10	248	0.00	30.096 
01:35	26.6	26.6	26.6	83	22.1	3	9	248	0.00	30.096 
01:40	26.6	26.6	26.6	84	22.4	2	4	248	0.00	30.096 
01:45	26.6	26.6	26.6	84	22.4	3	6	248	0.00	30.096 
01:50	26.4	26.4	26.4	84	22.2	2	5	248	0.00	30.096 
01:55	26.4	26.4	26.4	84	22.2	2	5	248	0.00	30.096 
02:00	26.4	26.4	26.4	84	22.2	2	6	248	0.00	30.095 
02:05	26.3	26.3	26.3	84	22.1	2	7	248	0.00	30.095 
02:10	26.3	26.3	26.3	84	22.1	2	6	248	0.00	30.095 
02:15	26.3	26.3	26.3	84	22.1	2	4	248	0.00	30.094 
02:20	26.1	26.1	26.1	84	21.9	1	3	248	0.00	30.094 
02:25	26.1	26.1	26.1	84	21.9	1	3	248	0.00	30.094 
02:30	26.1	26.1	26.1	84	21.9	1	2	248	0.00	30.095 
02:35	26.0	26.0	26.0	84	21.8	2	4	270	0.00	30.095 
02:40	26.0	26.0	26.0	84	21.8	2	4	270	0.00	30.095 
02:45	25.8	25.8	25.8	84	21.6	2	6	248	0.00	30.101 
02:50	25.7	25.7	25.7	84	21.5	3	5	248	0.00	30.101 
02:55	25.6	25.6	25.6	84	21.5	1	5	248	0.00	30.101 
03:00	25.3	25.3	25.3	83	20.9	2	4	248	0.00	30.113 
03:05	25.1	25.1	25.1	83	20.7	2	5	248	0.00	30.113 
03:10	25.0	25.0	25.0	84	20.9	2	6	248	0.00	30.113 
03:15	24.8	24.8	24.8	84	20.7	2	5	270	0.00	30.112 
03:20	24.8	24.8	24.8	84	20.7	2	5	248	0.00	30.112 
03:25	24.8	24.8	24.8	84	20.7	2	3	248	0.00	30.112 
03:30	24.7	24.7	24.7	84	20.6	2	4	248	0.00	30.111 
03:35	24.5	24.5	24.5	84	20.4	2	5	248	0.00	30.111 
03:40	24.5	24.5	24.5	84	20.4	2	6	248	0.00	30.111 
03:45	24.4	24.4	24.4	84	20.3	1	3	248	0.00	30.115 
03:50	24.4	24.4	24.4	84	20.3	2	3	248	0.00	30.115 
03:55	24.2	24.2	24.2	84	20.1	2	3	248	0.00	30.115 
04:00	24.1	24.1	24.1	84	20.0	1	3	248	0.00	30.118 
04:05	23.9	23.9	23.9	84	19.8	2	7	248	0.00	30.118 
04:10	23.8	23.8	23.8	84	19.7	1	4	248	0.00	30.118 
04:15	23.6	23.6	23.6	84	19.5	2	4	270	0.00	30.124 
04:20	23.3	23.3	23.3	84	19.2	2	4	270	0.00	30.124 
04:25	23.2	23.2	23.2	84	19.1	2	6	248	0.00	30.124 
04:30	23.2	23.2	23.2	85	19.4	2	4	270	0.00	30.125 
04:35	23.0	23.0	23.0	85	19.2	2	4	248	0.00	30.125 
04:40	22.9	22.9	22.9	85	19.1	1	4	248	0.00	30.125 
04:45	22.9	22.9	22.9	85	19.1	1	3	248	0.00	30.122 
04:50	22.7	22.7	22.7	86	19.2	1	4	248	0.00	30.122 
04:55	22.7	22.7	22.7	86	19.2	2	3	248	0.00	30.122 
05:00	22.7	22.7	22.7	86	19.2	1	3	248	0.00	30.119 
05:05	22.7	22.7	22.7	86	19.2	1	3	248	0.00	30.119 
05:10	22.5	22.5	22.5	87	19.2	1	4	248	0.00	30.119 
05:15	22.5	22.5	22.5	87	19.2	1	3	270	0.00	30.122 
05:20	22.4	22.4	22.4	87	19.1	1	3	248	0.00	30.122 
05:25	22.4	22.4	22.4	87	19.1	1	2	248	0.00	30.122 
05:30	22.4	22.4	22.4	88	19.4	0	3	248	0.00	30.126 
05:35	22.2	22.2	22.2	88	19.2	0	2	248	0.00	30.126 
05:40	22.2	22.2	22.2	88	19.2	1	2	315	0.00	30.126 
05:45	22.1	22.1	22.1	88	19.1	1	2	0	0.00	30.130 
05:50	21.9	21.9	21.9	88	18.9	1	3	248	0.00	30.130 
05:55	21.8	21.8	21.8	88	18.8	2	4	248	0.00	30.130 
06:00	21.8	21.8	21.8	89	19.1	1	3	248	0.00	30.135 
06:05	21.6	21.6	21.6	89	18.9	2	5	225	0.00	30.135 
06:10	21.6	21.6	21.6	89	18.9	2	3	248	0.00	30.135 
06:15	21.4	21.4	21.4	90	18.9	1	2	248	0.00	30.145 
06:20	21.4	21.4	21.4	90	18.9	1	3	248	0.00	30.145 
06:25	21.4	21.4	21.4	90	18.9	1	3	270	0.00	30.145 
06:30	21.4	21.4	21.4	90	18.9	1	2	270	0.00	30.150 
06:35	21.4	21.4	21.4	90	18.9	1	3	338	0.00	30.150 
06:40	21.3	21.3	21.3	90	18.8	1	2	225	0.00	30.150 
06:45	21.0	21.0	21.0	90	18.5	1	4	270	0.00	30.160 
06:50	20.8	20.8	20.8	90	18.3	1	4	338	0.00	30.160 
06:55	20.6	20.6	20.6	91	18.4	1	3	338	0.00	30.160 
07:00	20.6	20.6	20.6	91	18.4	1	2	315	0.00	30.161 
07:05	20.5	20.5	20.5	91	18.3	1	2	315	0.00	30.161 
07:10	20.5	20.5	20.5	91	18.3	1	2	338	0.00	30.161 
07:15	20.3	20.3	20.3	91	18.1	1	2	248	0.00	30.157 
07:20	20.3	20.3	20.3	91	18.1	0	2	248	0.00	30.157 
07:25	20.3	20.3	20.3	91	18.1	1	3	248	0.00	30.157 
07:30	20.3	20.3	20.3	91	18.1	0	1	248	0.00	30.162 
07:35	20.3	20.3	20.3	91	18.1	0	3	248	0.00	30.162 
07:40	20.2	20.2	20.2	91	18.0	0	2	248	0.00	30.162 
07:45	20.2	20.2	20.2	91	18.0	0	2	248	0.00	30.163 
07:50	20.2	20.2	20.2	91	18.0	0	1	248	0.00	30.163 
07:55	20.2	20.2	20.2	91	18.0	0	2	248	0.00	30.163 
08:00	20.2	20.2	20.2	91	18.0	0	1	248	0.00	30.162 
08:05	20.2	20.2	20.2	91	18.0	0	1	248	0.00	30.162 
08:10	20.3	20.3	20.3	91	18.1	0	1	248	0.00	30.162 
08:15	20.3	20.3	20.3	91	18.1	0	1	248	0.00	30.169 
08:20	20.5	20.5	20.5	91	18.3	0	1	248	0.00	30.169 
08:25	20.5	20.5	20.5	91	18.3	0	2	248	0.00	30.169 
08:30	20.5	20.5	20.5	91	18.3	0	1	248	0.00	30.176 
08:35	20.5	20.5	20.5	91	18.3	0	1	248	0.00	30.176 
08:40	20.5	20.5	20.5	91	18.3	0	1	248	0.00	30.176 
08:45	20.5	20.5	20.5	91	18.3	0	1	248	0.00	30.178 
08:50	20.6	20.6	20.6	91	18.4	0	1	248	0.00	30.178 
08:55	20.6	20.6	20.6	91	18.4	0	1	248	0.00	30.178 
09:00	20.8	20.8	20.8	91	18.6	0	0	---	0.00	30.173 
09:05	21.0	21.0	21.0	91	18.8	0	1	248	0.00	30.173 
09:10	21.1	21.1	21.1	91	18.9	0	0	---	0.00	30.173 
09:15	21.1	21.1	21.1	91	18.9	0	1	248	0.00	30.177 
09:20	21.1	21.1	21.1	91	18.9	0	1	248	0.00	30.177 
09:25	21.3	21.3	21.3	91	19.1	0	2	248	0.00	30.177 
09:30	21.4	21.4	21.4	91	19.2	0	1	248	0.00	30.177 
09:35	21.6	21.6	21.6	91	19.4	0	1	248	0.00	30.177 
09:40	21.8	21.8	21.8	91	19.6	0	1	248	0.00	30.177 
09:45	21.8	21.8	21.8	91	19.6	0	1	248	0.00	30.176 
09:50	21.9	21.9	21.9	91	19.7	0	1	248	0.00	30.176 
09:55	21.9	21.9	21.9	91	19.7	0	1	248	0.00	30.176 
10:00	22.1	22.1	22.1	91	19.9	0	3	248	0.00	30.174 
10:05	22.2	22.2	22.2	92	20.2	0	1	248	0.00	30.174 
10:10	22.5	22.5	22.5	91	20.3	0	1	248	0.00	30.174 
10:15	22.5	22.5	22.5	91	20.3	0	1	248	0.00	30.168 
10:20	22.5	22.5	22.5	91	20.3	0	2	248	0.00	30.168 
10:25	22.5	22.5	22.5	91	20.3	0	1	248	0.00	30.168 
10:30	22.7	22.7	22.7	91	20.5	0	1	248	0.00	30.172 
10:35	23.0	23.0	23.0	91	20.8	0	2	248	0.00	30.172 
10:40	23.3	23.3	23.3	91	21.1	0	2	248	0.00	30.172 
10:45	23.8	23.8	23.8	91	21.6	0	1	248	0.00	30.175 
10:50	24.1	24.1	24.1	91	21.9	0	2	248	0.00	30.175 
10:55	24.2	24.2	24.2	90	21.7	0	1	248	0.00	30.175 
11:00	24.4	24.4	24.4	89	21.6	0	1	248	0.00	30.179 
11:05	24.4	24.4	24.4	89	21.6	0	1	248	0.00	30.179 
11:10	24.2	24.2	24.2	88	21.2	0	1	248	0.00	30.179 
11:15	24.2	24.2	24.2	88	21.2	0	1	248	0.00	30.184 
11:20	24.5	24.5	24.5	87	21.2	0	1	248	0.00	30.184 
11:25	24.8	24.8	24.8	86	21.2	0	1	248	0.00	30.184 
11:30	24.7	24.7	24.7	85	20.8	0	1	248	0.00	30.186 
11:35	24.5	24.5	24.5	84	20.4	0	1	248	0.00	30.186 
11:40	24.8	24.8	24.8	84	20.7	0	1	248	0.00	30.186 
11:45	25.0	25.0	25.0	83	20.6	0	2	248	0.00	30.183 
11:50	25.4	25.4	25.4	83	21.0	0	1	248	0.00	30.183 
11:55	25.7	25.7	25.7	82	21.0	0	1	248	0.00	30.183 
12:00	26.0	26.0	26.0	81	21.0	0	1	248	0.00	30.180 
12:05	26.3	26.3	26.3	80	21.0	0	1	248	0.00	30.180 
12:10	26.4	26.4	26.4	80	21.1	0	0	---	0.00	30.180 
12:15	26.6	26.6	26.6	79	21.0	0	1	248	0.00	30.176 
12:20	26.3	26.3	26.3	78	20.4	0	1	248	0.00	30.176 
12:25	26.3	26.3	26.3	79	20.7	0	0	---	0.00	30.176 
12:30	26.4	26.4	26.4	78	20.5	0	1	248	0.00	30.171 
12:35	26.4	26.4	26.4	77	20.2	0	2	248	0.00	30.171 
12:40	26.4	26.4	26.4	78	20.5	0	2	90	0.00	30.171 
12:45	26.6	26.6	26.6	78	20.7	0	1	90	0.00	30.159 
12:50	26.9	26.9	26.9	78	21.0	0	2	90	0.00	30.159 
12:55	26.7	26.7	26.7	78	20.8	0	3	90	0.00	30.159 
13:00	26.7	26.7	26.7	77	20.5	0	1	90	0.00	30.159 
13:05	26.9	26.9	26.9	78	21.0	0	1	90	0.01	30.159 
13:10	27.0	27.0	27.0	77	20.8	0	2	90	0.00	30.159 
13:15	27.2	27.2	27.2	77	21.0	0	1	90	0.00	30.152 
13:20	27.3	27.3	27.3	76	20.8	0	1	90	0.00	30.152 
13:25	27.2	27.2	27.2	77	21.0	0	2	90	0.00	30.152 
13:30	27.2	27.2	27.2	77	21.0	0	1	90	0.01	30.145 
13:35	27.3	27.3	27.3	77	21.1	0	1	90	0.00	30.145 
13:40	27.3	27.3	27.3	77	21.1	0	1	90	0.00	30.145 
13:45	27.5	27.5	27.5	77	21.3	0	1	90	0.00	30.140 
13:50	27.5	27.5	27.5	77	21.3	1	3	90	0.00	30.140 
13:55	27.2	27.2	27.2	77	21.0	0	2	90	0.00	30.140 
14:00	26.9	26.9	26.9	78	21.0	0	2	90	0.00	30.144 
14:05	26.7	26.7	26.7	78	20.8	0	1	90	0.00	30.144 
14:10	26.6	26.6	26.6	79	21.0	0	1	90	0.01	30.144 
14:15	26.6	26.6	26.6	79	21.0	0	0	---	0.00	30.145 
14:20	26.7	26.7	26.7	79	21.1	0	0	---	0.00	30.145 
14:25	26.7	26.7	26.7	79	21.1	0	0	---	0.00	30.145 
14:30	26.7	26.7	26.7	79	21.1	0	0	---	0.00	30.141 
14:35	26.9	26.9	26.9	79	21.3	0	0	---	0.00	30.141 
14:40	26.9	26.9	26.9	79	21.3	0	0	---	0.00	30.141 
14:45	27.0	27.0	27.0	79	21.4	0	0	---	0.00	30.132 
14:50	27.0	27.0	27.0	78	21.1	0	0	---	0.00	30.132 
14:55	27.0	27.0	27.0	78	21.1	0	0	---	0.00	30.132 
15:00	27.2	27.2	27.2	77	21.0	0	0	---	0.00	30.127 
15:05	26.9	26.9	26.9	78	21.0	0	0	---	0.00	30.127 
15:10	26.6	26.6	26.6	78	20.7	0	0	---	0.00	30.127 
15:15	26.6	26.6	26.6	79	21.0	0	0	---	0.00	30.126 
15:20	26.6	26.6	26.6	78	20.7	0	2	90	0.00	30.126 
15:25	26.4	26.4	26.4	78	20.5	0	1	90	0.00	30.126 
15:30	26.4	26.4	26.4	79	20.8	0	1	90	0.00	30.125 
15:35	26.4	26.4	26.4	79	20.8	0	1	90	0.00	30.125 
15:40	26.6	26.6	26.6	79	21.0	0	2	90	0.00	30.125 
15:45	26.6	26.6	26.6	79	21.0	0	0	---	0.00	30.118 
15:50	26.4	26.4	26.4	79	20.8	0	2	90	0.00	30.118 
15:55	26.4	26.4	26.4	79	20.8	0	2	90	0.00	30.118 
16:00	26.4	26.4	26.4	79	20.8	1	2	90	0.00	30.115 
16:05	26.3	26.3	26.3	79	20.7	0	1	90	0.00	30.115 
16:10	26.3	26.3	26.3	80	21.0	0	1	90	0.00	30.115 
16:15	26.3	26.3	26.3	80	21.0	0	2	90	0.00	30.109 
16:20	26.3	26.3	26.3	79	20.7	1	3	90	0.00	30.109 
16:25	26.1	26.1	26.1	80	20.8	0	1	90	0.00	30.109 
16:30	26.1	26.1	26.1	80	20.8	0	1	90	0.00	30.101 
16:35	26.1	26.1	26.1	80	20.8	0	1	90	0.00	30.101 
16:40	26.1	26.1	26.1	80	20.8	0	1	90	0.00	30.101 
16:45	26.1	26.1	26.1	80	20.8	0	2	90	0.00	30.103 
16:50	26.0	26.0	26.0	80	20.7	0	2	90	0.00	30.103 
16:55	26.0	26.0	26.0	80	20.7	0	2	90	0.00	30.103 
17:00	25.8	25.8	25.8	81	20.8	0	2	90	0.00	30.105 
17:05	25.8	25.8	25.8	81	20.8	0	2	90	0.00	30.105 
17:10	25.7	25.7	25.7	81	20.7	0	1	90	0.00	30.105 
17:15	25.7	25.7	25.7	81	20.7	0	3	90	0.00	30.107 
17:20	25.6	25.6	25.6	81	20.6	1	3	90	0.00	30.107 
17:25	25.6	25.6	25.6	81	20.6	0	1	90	0.00	30.107 
17:30	25.4	25.4	25.4	81	20.4	0	0	---	0.00	30.117 
17:35	25.4	25.4	25.4	81	20.4	0	0	---	0.00	30.117 
17:40	25.3	25.3	25.3	81	20.3	0	0	---	0.00	30.117 
17:45	25.3	25.3	25.3	81	20.3	0	0	---	0.00	30.119 
17:50	25.3	25.3	25.3	81	20.3	0	0	---	0.00	30.119 
17:55	25.1	25.1	25.1	81	20.1	0	1	90	0.00	30.119 
18:00	25.1	25.1	25.1	81	20.1	0	0	---	0.00	30.113 
18:05	25.1	25.1	25.1	82	20.4	0	0	---	0.00	30.113 
18:10	25.1	25.1	25.1	82	20.4	0	3	90	0.00	30.113 
18:15	25.0	25.0	25.0	82	20.3	0	4	90	0.00	30.120 
18:20	25.0	25.0	25.0	82	20.3	0	2	90	0.00	30.120 
18:25	25.0	25.0	25.0	82	20.3	0	2	90	0.00	30.120 
18:30	25.0	25.0	25.0	83	20.6	0	2	90	0.00	30.125 
18:35	25.0	25.0	25.0	83	20.6	0	1	90	0.00	30.125 
18:40	24.8	24.8	24.8	83	20.4	0	2	90	0.00	30.125 
18:45	24.8	24.8	24.8	83	20.4	0	1	90	0.00	30.123 
18:50	24.8	24.8	24.8	83	20.4	0	0	---	0.00	30.123 
18:55	24.8	24.8	24.8	83	20.4	0	1	90	0.00	30.123 
19:00	24.7	24.7	24.7	83	20.3	0	0	---	0.00	30.123 
19:05	24.7	24.7	24.7	83	20.3	0	0	---	0.00	30.123 
19:10	24.7	24.7	24.7	83	20.3	0	0	---	0.00	30.123 
19:15	24.7	24.7	24.7	83	20.3	0	1	90	0.00	30.130 
19:20	24.7	24.7	24.7	83	20.3	0	1	90	0.00	30.130 
19:25	24.7	24.7	24.7	83	20.3	1	2	90	0.00	30.130 
19:30	24.7	24.7	24.7	83	20.3	0	2	90	0.00	30.137 
19:35	24.5	24.5	24.5	83	20.1	0	1	90	0.00	30.137 
19:40	24.5	24.5	24.5	83	20.1	0	1	90	0.00	30.137 
19:45	24.5	24.5	24.5	83	20.1	0	1	90	0.00	30.135 
19:50	24.5	24.5	24.5	83	20.1	0	1	90	0.00	30.135 
19:55	24.5	24.5	24.5	83	20.1	0	2	90	0.00	30.135 
20:00	24.5	24.5	24.5	83	20.1	0	3	90	0.00	30.137 
20:05	24.4	24.4	24.4	83	20.0	0	2	90	0.00	30.137 
20:10	24.4	24.4	24.4	83	20.0	0	1	90	0.00	30.137 
20:15	24.2	24.2	24.2	84	20.1	0	1	90	0.00	30.132 
20:20	24.2	24.2	24.2	84	20.1	0	2	90	0.00	30.132 
20:25	24.2	24.2	24.2	84	20.1	0	1	90	0.00	30.132 
20:30	24.1	24.1	24.1	84	20.0	0	0	---	0.00	30.122 
20:35	24.1	24.1	24.1	84	20.0	0	0	---	0.00	30.122 
20:40	24.1	24.1	24.1	84	20.0	0	0	---	0.00	30.122 
20:45	24.1	24.1	24.1	84	20.0	0	1	90	0.00	30.115 
20:50	23.9	23.9	23.9	84	19.8	0	1	90	0.00	30.115 
20:55	23.9	23.9	23.9	84	19.8	0	0	---	0.00	30.115 
21:00	23.9	23.9	23.9	84	19.8	0	2	90	0.00	30.105 
21:05	23.9	23.9	23.9	84	19.8	1	2	90	0.00	30.105 
21:10	23.8	23.8	23.8	84	19.7	0	1	90	0.00	30.105 
21:15	23.8	23.8	23.8	84	19.7	0	2	90	0.00	30.098 
21:20	23.8	23.8	23.8	84	19.7	0	1	90	0.00	30.098 
21:25	23.6	23.6	23.6	84	19.5	0	1	90	0.00	30.098 
21:30	23.6	23.6	23.6	84	19.5	0	1	90	0.00	30.089 
21:35	23.6	23.6	23.6	84	19.5	0	1	90	0.00	30.089 
21:40	23.6	23.6	23.6	84	19.5	0	1	90	0.00	30.089 
21:45	23.6	23.6	23.6	85	19.8	0	1	90	0.00	30.085 
21:50	23.6	23.6	23.6	85	19.8	1	3	90	0.00	30.085 
21:55	23.5	23.5	23.5	85	19.7	1	4	90	0.00	30.085 
22:00	23.5	23.5	23.5	85	19.7	0	1	90	0.00	30.084 
22:05	23.5	23.5	23.5	85	19.7	0	1	90	0.00	30.084 
22:10	23.3	23.3	23.3	85	19.5	0	1	90	0.00	30.084 
22:15	23.3	23.3	23.3	86	19.7	0	1	90	0.00	30.084 
22:20	23.3	23.3	23.3	86	19.7	0	1	90	0.00	30.084 
22:25	23.3	23.3	23.3	86	19.7	0	2	90	0.00	30.084 
22:30	23.2	23.2	23.2	86	19.6	0	2	90	0.00	30.088 
22:35	23.2	23.2	23.2	86	19.6	0	1	90	0.00	30.088 
22:40	23.2	23.2	23.2	86	19.6	0	0	---	0.00	30.088 
22:45	23.2	23.2	23.2	86	19.6	0	2	90	0.00	30.089 
22:50	23.2	23.2	23.2	86	19.6	0	1	90	0.00	30.089 
22:55	23.2	23.2	23.2	87	19.9	0	1	90	0.00	30.089 
23:00	23.0	23.0	23.0	87	19.7	0	0	---	0.00	30.089 
23:05	23.0	23.0	23.0	87	19.7	0	3	90	0.00	30.089 
23:10	22.9	22.9	22.9	87	19.6	1	3	90	0.00	30.089 
23:15	22.9	22.9	22.9	87	19.6	1	3	90	0.00	30.082 
23:20	22.7	22.7	22.7	87	19.4	0	2	90	0.00	30.082 
23:25	22.7	22.7	22.7	87	19.4	0	1	90	0.00	30.082 
23:30	22.5	22.5	22.5	87	19.2	0	0	---	0.00	30.078 
23:35	22.5	22.5	22.5	87	19.2	0	1	90	0.00	30.078 
23:40	22.5	22.5	22.5	88	19.5	1	3	90	0.00	30.078 
23:45	22.5	22.5	22.5	88	19.5	0	0	---	0.00	30.069 
23:50	22.5	22.5	22.5	88	19.5	0	0	---	0.00	30.069 
23:55	22.5	22.5	22.5	88	19.5	0	1	90	0.00	30.069 

CoCoRaHS
IN-AL-39
A2 Web Hosting
Creative Commons License
GoDaddy
search engine by freefind advanced

loaded 2018-11-20 07:18:09 • last modified 2010-11-18 10:43:29
Privacy PolicyDisclaimer
• wx.awcolley.com is powered by PmWiki v.2002016 •
• all content (unless otherwise noted) © 2018 A W Colley